Time;durP1;ratioP1;P1;durP2;ratioP2;P2;SDS_P1;SDS_P2;PMS_P1;PMS_P2;Temp;Humidity;BMP_temperature;BMP_pressure;BME280_temperature;BME280_humidity;BME280_pressure;Samples;Min_cycle;Max_cycle;Signal;HPM_P1;HPM_P2
2022/03/25 00:01:06;;;;;;;5.47;4.90;;;9.50;48.80;9.60;97255.00;;;;4914313;28;20538;-84
2022/03/25 00:03:34;;;;;;;6.33;4.97;;;9.40;48.80;9.50;97243.00;;;;4916375;28;20201;-85
2022/03/25 00:06:01;;;;;;;7.00;5.37;;;9.40;48.80;9.50;97243.00;;;;4918664;28;20658;-84
2022/03/25 00:08:29;;;;;;;7.83;4.80;;;9.40;48.80;9.50;97252.00;;;;4924889;28;20200;-84
2022/03/25 00:10:58;;;;;;;6.07;5.43;;;9.40;48.70;9.40;97246.00;;;;4909890;28;20648;-83
2022/03/25 00:13:25;;;;;;;6.80;5.43;;;9.40;48.80;9.40;97249.00;;;;4911243;28;20252;-84
2022/03/25 00:15:53;;;;;;;5.10;4.60;;;9.30;48.80;9.30;97239.00;;;;4917771;29;20249;-83
2022/03/25 00:18:20;;;;;;;5.53;4.93;;;9.30;48.80;9.30;97243.00;;;;4915788;28;20239;-84
2022/03/25 00:20:49;;;;;;;7.93;4.57;;;9.20;48.90;9.30;97245.00;;;;4905148;29;20208;-84
2022/03/25 00:23:16;;;;;;;6.47;5.53;;;9.20;49.00;9.30;97244.00;;;;4917789;28;20201;-84
2022/03/25 00:25:43;;;;;;;7.30;5.03;;;9.10;49.00;9.20;97243.00;;;;4904610;28;20588;-84
2022/03/25 00:28:12;;;;;;;5.73;5.03;;;9.10;49.10;9.20;97243.00;;;;4907036;28;20285;-83
2022/03/25 00:30:39;;;;;;;6.17;4.93;;;9.10;49.20;9.20;97234.00;;;;4908678;28;20221;-84
2022/03/25 00:33:07;;;;;;;6.63;5.23;;;9.00;49.30;9.10;97237.00;;;;4919459;28;20222;-84
2022/03/25 00:35:34;;;;;;;6.47;5.50;;;9.00;49.40;9.10;97231.00;;;;4910961;28;20635;-84
2022/03/25 00:38:01;;;;;;;5.97;5.10;;;9.10;49.60;9.10;97234.00;;;;4929608;28;20659;-84
2022/03/25 00:40:29;;;;;;;6.73;4.83;;;8.90;49.70;9.10;97243.00;;;;4915706;28;20221;-85
2022/03/25 00:42:56;;;;;;;7.67;5.03;;;8.90;49.90;9.00;97236.00;;;;4917105;28;20229;-83
2022/03/25 00:45:28;;;;;;;5.30;4.80;;;8.90;49.90;9.00;97220.00;;;;4917284;29;20215;-84
2022/03/25 00:47:56;;;;;;;5.87;5.27;;;8.80;50.50;8.90;97229.00;;;;4917862;29;20603;-83
2022/03/25 00:50:23;;;;;;;6.17;5.40;;;8.80;50.00;8.90;97224.00;;;;4899422;28;20213;-84
2022/03/25 00:52:51;;;;;;;6.30;5.47;;;8.80;50.20;8.90;97228.00;;;;4913468;28;20233;-85
2022/03/25 00:55:19;;;;;;;7.40;5.40;;;8.70;50.20;8.90;97219.00;;;;4909090;28;20237;-84
2022/03/25 00:57:46;;;;;;;6.00;5.27;;;8.70;50.20;8.80;97232.00;;;;4918192;28;20209;-84
2022/03/25 01:00:14;;;;;;;6.03;5.20;;;8.70;50.30;8.80;97228.00;;;;4919575;29;20652;-84
2022/03/25 01:02:43;;;;;;;5.47;4.97;;;8.60;50.40;8.80;97219.00;;;;4919730;28;20211;-84
2022/03/25 01:05:10;;;;;;;7.13;4.90;;;8.60;50.50;8.70;97224.00;;;;4912537;28;20226;-84
2022/03/25 01:07:39;;;;;;;6.50;5.50;;;8.60;50.60;8.70;97213.00;;;;4914276;28;20205;-85
2022/03/25 01:10:08;;;;;;;8.63;5.70;;;8.60;50.70;8.70;97214.00;;;;4901449;28;20285;-83
2022/03/25 01:12:35;;;;;;;5.73;4.90;;;8.50;50.70;8.60;97222.00;;;;4916310;29;20205;-84
2022/03/25 01:15:02;;;;;;;6.87;5.07;;;8.50;50.70;8.60;97218.00;;;;4903810;29;20586;-83
2022/03/25 01:17:29;;;;;;;6.07;5.47;;;8.50;50.80;8.50;97216.00;;;;4908010;28;20860;-83
2022/03/25 01:19:58;;;;;;;5.90;5.30;;;8.40;51.00;8.50;97212.00;;;;4902692;28;20577;-83
2022/03/25 01:22:25;;;;;;;8.47;5.40;;;8.40;51.20;8.50;97207.00;;;;4911540;29;20214;-83
2022/03/25 01:24:52;;;;;;;5.70;5.07;;;8.40;51.20;8.50;97214.00;;;;4915301;28;20252;-84
2022/03/25 01:27:22;;;;;;;6.23;5.53;;;8.30;51.40;8.50;97212.00;;;;4899469;28;20206;-83
2022/03/25 01:29:49;;;;;;;5.30;4.80;;;8.30;51.50;8.40;97208.00;;;;4915735;28;20658;-82
2022/03/25 01:32:16;;;;;;;6.20;4.63;;;8.30;51.60;8.40;97212.00;;;;4917269;28;20233;-83
2022/03/25 01:34:44;;;;;;;5.70;5.20;;;8.30;51.80;8.40;97208.00;;;;4903299;28;20230;-83
2022/03/25 01:37:12;;;;;;;7.37;5.27;;;8.20;51.90;8.40;97206.00;;;;4906553;28;20213;-83
2022/03/25 01:39:40;;;;;;;6.03;5.33;;;8.20;52.00;8.40;97205.00;;;;4911475;28;20237;-83
2022/03/25 01:42:10;;;;;;;8.93;5.97;;;8.20;52.00;8.30;97208.00;;;;4911327;28;20198;-83
2022/03/25 01:44:38;;;;;;;6.27;4.90;;;8.20;52.10;8.30;97208.00;;;;4900757;28;20218;-83
2022/03/25 01:47:08;;;;;;;5.73;5.10;;;8.20;52.10;8.30;97203.00;;;;4897998;28;20199;-83
2022/03/25 01:49:35;;;;;;;5.20;4.70;;;8.10;52.10;8.20;97210.00;;;;4898768;28;20682;-83
2022/03/25 01:52:03;;;;;;;6.57;5.37;;;8.10;52.10;8.20;97208.00;;;;4904261;28;20213;-83
2022/03/25 01:54:35;;;;;;;6.70;5.27;;;8.10;52.20;8.20;97208.00;;;;4905479;28;20236;-83
2022/03/25 01:57:07;;;;;;;6.97;5.37;;;8.10;52.30;8.20;97202.00;;;;4908760;28;20198;-83
2022/03/25 01:59:35;;;;;;;7.30;5.83;;;8.00;52.20;8.10;97208.00;;;;4897343;28;20237;-82
2022/03/25 02:02:08;;;;;;;6.47;5.40;;;8.00;52.30;8.10;97203.00;;;;4914474;28;20942;-83
2022/03/25 02:04:36;;;;;;;6.20;5.30;;;8.00;52.40;8.00;97199.00;;;;4902550;28;20363;-82
2022/03/25 02:07:04;;;;;;;5.93;4.97;;;8.00;52.40;8.00;97205.00;;;;4916309;28;20201;-82
2022/03/25 02:09:33;;;;;;;6.57;4.77;;;7.90;52.50;8.00;97201.00;;;;4914708;28;20202;-83
2022/03/25 02:12:01;;;;;;;6.80;5.47;;;7.90;52.60;8.00;97197.00;;;;4905564;28;20647;-83
2022/03/25 02:14:28;;;;;;;6.90;4.90;;;7.90;52.60;7.90;97201.00;;;;4900311;28;20249;-83
2022/03/25 02:16:55;;;;;;;6.53;5.47;;;7.80;52.60;7.90;97194.00;;;;4902693;28;20230;-83
2022/03/25 02:19:25;;;;;;;6.93;5.17;;;7.80;52.70;7.90;97197.00;;;;4907245;28;20243;-83
2022/03/25 02:21:53;;;;;;;6.10;5.20;;;7.80;52.80;7.90;97196.00;;;;4908384;28;20222;-83
2022/03/25 02:24:21;;;;;;;7.47;5.80;;;7.80;52.90;7.80;97194.00;;;;4917084;28;20236;-83
2022/03/25 02:26:49;;;;;;;7.23;5.27;;;7.70;52.90;7.80;97193.00;;;;4906559;28;20202;-83
2022/03/25 02:29:16;;;;;;;5.37;4.87;;;7.70;52.90;7.80;97186.00;;;;4898982;28;20289;-83
2022/03/25 02:31:44;;;;;;;7.27;5.03;;;7.70;53.00;7.80;97201.00;;;;4927594;28;20624;-83
2022/03/25 02:34:12;;;;;;;6.33;5.07;;;7.60;53.00;7.70;97193.00;;;;4909784;29;20263;-83
2022/03/25 02:36:40;;;;;;;6.20;5.60;;;7.60;52.90;7.70;97193.00;;;;4916917;28;20208;-83
2022/03/25 02:39:11;;;;;;;6.13;5.53;;;7.60;53.00;7.70;97191.00;;;;4911790;29;20218;-83
2022/03/25 02:41:38;;;;;;;6.03;4.90;;;7.60;53.20;7.70;97195.00;;;;4909725;29;20197;-83
2022/03/25 02:44:07;;;;;;;5.57;4.80;;;7.60;53.20;7.70;97193.00;;;;4904924;28;20222;-82
2022/03/25 02:46:36;;;;;;;6.37;5.43;;;7.50;53.20;7.60;97196.00;;;;4904068;28;20194;-83
2022/03/25 02:49:04;;;;;;;5.97;5.37;;;7.50;53.20;7.60;97190.00;;;;4904421;28;20260;-83
2022/03/25 02:51:31;;;;;;;6.23;5.03;;;7.50;53.20;7.60;97196.00;;;;4911029;28;20204;-83
2022/03/25 02:53:59;;;;;;;6.77;5.10;;;7.50;53.30;7.50;97195.00;;;;4915818;28;20312;-82
2022/03/25 02:56:28;;;;;;;5.30;4.80;;;7.40;53.30;7.50;97202.00;;;;4897244;28;20248;-82
2022/03/25 02:58:56;;;;;;;5.97;5.20;;;7.40;53.50;7.50;97197.00;;;;4896944;28;20313;-82
2022/03/25 03:01:23;;;;;;;6.10;5.07;;;7.40;53.50;7.50;97196.00;;;;4916291;28;20634;-82
2022/03/25 03:03:51;;;;;;;5.23;4.73;;;7.40;53.60;7.50;97195.00;;;;4915200;28;20217;-82
2022/03/25 03:06:18;;;;;;;7.67;5.17;;;7.40;53.50;7.50;97192.00;;;;4914606;28;20208;-83
2022/03/25 03:08:45;;;;;;;5.43;4.93;;;7.40;53.60;7.40;97194.00;;;;4914367;28;20280;-83
2022/03/25 03:11:12;;;;;;;7.37;5.27;;;7.40;53.80;7.40;97195.00;;;;4907604;28;20221;-82
2022/03/25 03:13:41;;;;;;;5.80;5.20;;;7.40;54.00;7.40;97192.00;;;;4915123;28;20229;-83
2022/03/25 03:16:09;;;;;;;5.27;4.70;;;7.30;53.90;7.40;97192.00;;;;4914994;28;20288;-83
2022/03/25 03:18:36;;;;;;;6.47;5.07;;;7.30;53.70;7.40;97190.00;;;;4911807;28;20206;-83
2022/03/25 03:21:03;;;;;;;5.87;5.20;;;7.30;53.70;7.30;97190.00;;;;4914382;29;20226;-82
2022/03/25 03:23:30;;;;;;;5.50;5.00;;;7.30;53.70;7.30;97185.00;;;;4896742;28;20297;-82
2022/03/25 03:25:57;;;;;;;6.23;5.07;;;7.30;53.70;7.30;97192.00;;;;4896275;29;20258;-83
2022/03/25 03:28:24;;;;;;;5.47;4.70;;;7.20;53.60;7.30;97193.00;;;;4895162;28;20210;-83
2022/03/25 03:30:54;;;;;;;7.60;4.90;;;7.20;53.70;7.30;97188.00;;;;4910238;28;20739;-83
2022/03/25 03:33:21;;;;;;;6.57;4.83;;;7.20;53.80;7.20;97192.00;;;;4914851;28;20229;-83
2022/03/25 03:35:48;;;;;;;6.40;5.00;;;7.20;54.40;7.20;97191.00;;;;4911358;28;20262;-83
2022/03/25 03:38:15;;;;;;;5.47;4.90;;;7.20;53.80;7.20;97191.00;;;;4915486;28;20206;-82
2022/03/25 03:40:42;;;;;;;7.57;5.50;;;7.10;53.70;7.10;97199.00;;;;4901822;28;20202;-83
2022/03/25 03:43:10;;;;;;;6.90;5.93;;;7.00;53.70;7.10;97186.00;;;;4914356;28;20233;-83
2022/03/25 03:45:38;;;;;;;6.70;5.00;;;7.10;53.90;7.10;97186.00;;;;4904083;28;20718;-84
2022/03/25 03:48:07;;;;;;;6.57;4.90;;;7.10;53.90;7.10;97186.00;;;;4904759;28;20217;-83
2022/03/25 03:50:34;;;;;;;7.50;5.30;;;7.00;54.00;7.00;97186.00;;;;4904033;28;20202;-84
2022/03/25 03:53:02;;;;;;;5.93;5.33;;;7.00;54.00;7.00;97188.00;;;;4894727;28;20209;-84
2022/03/25 03:55:29;;;;;;;7.50;5.77;;;7.10;54.00;7.00;97184.00;;;;4893853;29;20230;-84
2022/03/25 03:57:56;;;;;;;5.73;5.13;;;6.90;54.00;6.90;97183.00;;;;4912602;28;20216;-84
2022/03/25 04:00:24;;;;;;;8.13;5.47;;;6.90;54.00;6.90;97181.00;;;;4914480;28;20237;-85
2022/03/25 04:02:52;;;;;;;7.30;5.37;;;6.90;54.00;6.90;97182.00;;;;4916720;28;20215;-84
2022/03/25 04:05:21;;;;;;;5.70;5.00;;;6.80;54.10;6.80;97180.00;;;;4915901;28;20597;-84
2022/03/25 04:07:49;;;;;;;8.87;5.33;;;6.80;54.20;6.80;97178.00;;;;4909595;28;20236;-85
2022/03/25 04:10:19;;;;;;;6.03;5.43;;;6.80;54.20;6.80;97182.00;;;;4906689;28;20608;-85
2022/03/25 04:12:46;;;;;;;6.33;5.30;;;6.80;54.40;6.70;97179.00;;;;4904027;28;20302;-84
2022/03/25 04:15:15;;;;;;;6.90;5.40;;;6.80;54.40;6.70;97183.00;;;;4914087;28;20928;-85
2022/03/25 04:17:44;;;;;;;7.27;5.43;;;6.70;54.90;6.70;97188.00;;;;4985894;28;20194;-85
2022/03/25 04:20:14;;;;;;;6.80;5.57;;;6.70;54.50;6.70;97175.00;;;;5014202;28;20213;-84
2022/03/25 04:22:43;;;;;;;5.77;5.17;;;6.70;54.50;6.60;97185.00;;;;5012664;28;20202;-84
2022/03/25 04:25:11;;;;;;;6.80;5.57;;;6.60;54.50;6.60;97183.00;;;;4959284;28;20711;-85
2022/03/25 04:27:49;;;;;;;8.67;6.03;;;6.50;54.50;6.60;97188.00;;;;4898065;28;20738;-85
2022/03/25 04:30:19;;;;;;;7.40;5.93;;;6.60;55.00;6.60;97189.00;;;;4900212;28;20292;-85
2022/03/25 04:32:47;;;;;;;8.07;6.07;;;6.60;55.00;6.50;97187.00;;;;4915649;28;21870;-85
2022/03/25 04:35:14;;;;;;;7.10;5.37;;;6.60;55.00;6.50;97183.00;;;;4913149;28;20249;-84
2022/03/25 04:37:43;;;;;;;6.60;5.50;;;6.50;55.00;6.50;97188.00;;;;4914303;28;20287;-84
2022/03/25 04:40:13;;;;;;;7.13;5.50;;;6.50;55.00;6.50;97185.00;;;;4915534;28;20295;-85
2022/03/25 04:42:40;;;;;;;7.13;5.50;;;6.50;54.90;6.50;97180.00;;;;4913399;28;20224;-84
2022/03/25 04:45:08;;;;;;;8.40;5.07;;;6.50;54.90;6.50;97186.00;;;;4914601;28;20304;-84
2022/03/25 04:47:35;;;;;;;7.37;5.33;;;6.50;54.90;6.40;97184.00;;;;4897446;28;20237;-84
2022/03/25 04:50:03;;;;;;;6.10;5.50;;;6.50;54.80;6.40;97192.00;;;;4906104;28;20284;-84
2022/03/25 04:52:30;;;;;;;8.53;5.33;;;6.50;54.80;6.40;97190.00;;;;4907676;28;20285;-84
2022/03/25 04:54:59;;;;;;;8.23;5.73;;;6.50;54.90;6.40;97196.00;;;;4914442;28;20221;-84
2022/03/25 04:57:26;;;;;;;6.10;4.87;;;6.40;54.80;6.40;97200.00;;;;4911535;28;20197;-84
2022/03/25 04:59:53;;;;;;;5.63;4.97;;;6.40;54.80;6.40;97201.00;;;;4910757;28;20557;-84
2022/03/25 05:02:20;;;;;;;6.43;5.53;;;6.40;54.90;6.30;97200.00;;;;4914611;28;20288;-84
2022/03/25 05:04:47;;;;;;;8.40;5.87;;;6.30;54.80;6.30;97204.00;;;;4908165;29;20230;-84
2022/03/25 05:07:15;;;;;;;8.67;5.63;;;6.30;54.90;6.30;97195.00;;;;4910537;28;20198;-84
2022/03/25 05:09:43;;;;;;;9.27;5.90;;;6.30;54.90;6.30;97202.00;;;;4915348;28;20292;-84
2022/03/25 05:12:12;;;;;;;6.63;5.97;;;6.30;54.90;6.20;97201.00;;;;4916659;29;20261;-84
2022/03/25 05:14:40;;;;;;;6.17;5.00;;;6.30;55.00;6.20;97200.00;;;;4917431;28;20261;-84
2022/03/25 05:17:08;;;;;;;7.67;5.90;;;6.20;55.00;6.20;97200.00;;;;4916280;28;20229;-83
2022/03/25 05:19:35;;;;;;;8.10;5.60;;;6.30;55.10;6.20;97201.00;;;;4916843;28;20233;-84
2022/03/25 05:22:03;;;;;;;9.40;5.90;;;6.20;55.20;6.20;97200.00;;;;4912084;28;20573;-83
2022/03/25 05:24:33;;;;;;;8.93;5.33;;;6.20;55.30;6.20;97201.00;;;;4902219;28;20617;-86
2022/03/25 05:27:04;;;;;;;8.17;5.80;;;6.20;55.50;6.20;97202.00;;;;4916188;28;20193;-85
2022/03/25 05:29:32;;;;;;;10.00;5.73;;;6.10;56.00;6.20;97203.00;;;;4912821;28;20639;-84
2022/03/25 05:32:00;;;;;;;10.10;6.53;;;6.20;55.60;6.20;97202.00;;;;4918226;28;20205;-84
2022/03/25 05:34:27;;;;;;;7.03;5.83;;;6.10;56.20;6.30;97203.00;;;;4916402;28;20303;-86
2022/03/25 05:36:54;;;;;;;6.63;5.93;;;6.20;55.80;6.30;97205.00;;;;4916890;28;20207;-86
2022/03/25 05:39:21;;;;;;;9.00;6.60;;;6.10;55.90;6.30;97209.00;;;;4917776;28;20225;-85
2022/03/25 05:41:50;;;;;;;7.57;5.90;;;6.20;56.00;6.40;97212.00;;;;4909949;28;20198;-84
2022/03/25 05:44:18;;;;;;;9.77;6.03;;;6.20;56.10;6.40;97223.00;;;;4897285;28;20317;-84
2022/03/25 05:46:47;;;;;;;9.57;5.93;;;6.20;56.10;6.40;97231.00;;;;4908157;28;20273;-85
2022/03/25 05:49:14;;;;;;;6.47;5.67;;;6.20;56.10;6.40;97229.00;;;;4916472;28;20200;-84
2022/03/25 05:51:41;;;;;;;8.97;6.17;;;6.20;56.10;6.40;97223.00;;;;4897752;28;20206;-86
2022/03/25 05:54:09;;;;;;;6.67;5.93;;;6.20;56.10;6.50;97230.00;;;;4899361;28;20253;-85
2022/03/25 05:56:38;;;;;;;13.03;6.37;;;6.20;56.30;6.50;97226.00;;;;4914562;28;20228;-87
2022/03/25 05:59:06;;;;;;;7.87;5.93;;;6.30;56.30;6.50;97227.00;;;;4927724;23;20324;-86
2022/03/25 06:01:33;;;;;;;6.57;5.47;;;6.40;56.90;6.60;97227.00;;;;4932050;28;20267;-87
2022/03/25 06:04:01;;;;;;;8.40;6.33;;;6.30;56.40;6.60;97232.00;;;;4916276;28;20284;-87
2022/03/25 06:06:28;;;;;;;8.13;5.97;;;6.30;56.50;6.60;97229.00;;;;4908668;28;20746;-88
2022/03/25 06:08:56;;;;;;;7.47;5.80;;;6.40;56.50;6.70;97234.00;;;;4896142;28;20285;-86
2022/03/25 06:11:23;;;;;;;10.53;6.70;;;6.40;56.50;6.80;97237.00;;;;4914180;28;20290;-87
2022/03/25 06:13:50;;;;;;;12.00;6.60;;;6.50;56.60;6.80;97224.00;;;;4915595;29;20202;-89
2022/03/25 06:16:18;;;;;;;7.23;5.70;;;6.50;56.60;6.90;97247.00;;;;4930001;28;20232;-87
2022/03/25 06:18:45;;;;;;;8.30;6.47;;;6.50;56.60;6.90;97238.00;;;;4929838;28;20198;-86
2022/03/25 06:21:13;;;;;;;9.00;6.47;;;6.60;56.60;7.00;97240.00;;;;4913371;28;20224;-87
2022/03/25 06:23:40;;;;;;;9.50;6.77;;;6.70;56.60;7.10;97246.00;;;;4913378;28;20288;-86
2022/03/25 06:26:07;;;;;;;8.17;6.80;;;6.70;56.60;7.10;97242.00;;;;4913921;28;20586;-87
2022/03/25 06:28:35;;;;;;;9.07;6.07;;;6.80;56.50;7.20;97249.00;;;;4913561;28;20292;-87
2022/03/25 06:31:02;;;;;;;8.90;6.50;;;6.80;56.40;7.20;97243.00;;;;4913726;28;20317;-87
2022/03/25 06:33:29;;;;;;;9.33;7.20;;;6.90;56.30;7.30;97240.00;;;;4914237;28;20205;-88
2022/03/25 06:35:56;;;;;;;10.60;7.80;;;7.00;56.10;7.30;97239.00;;;;4913953;28;20228;-88
2022/03/25 06:38:25;;;;;;;8.03;6.73;;;7.00;56.00;7.40;97233.00;;;;4955016;28;20195;-87
2022/03/25 06:40:52;;;;;;;10.40;7.17;;;7.10;56.00;7.40;97240.00;;;;5000778;28;20300;-88
2022/03/25 06:43:19;;;;;;;8.87;7.20;;;7.10;56.20;7.50;97241.00;;;;4906837;28;20198;-88
2022/03/25 06:45:46;;;;;;;8.90;6.80;;;7.20;56.20;7.60;97233.00;;;;4894729;28;20238;-87
2022/03/25 06:48:13;;;;;;;10.17;7.13;;;7.30;56.10;7.70;97237.00;;;;4897506;28;20198;-88
2022/03/25 06:50:41;;;;;;;10.20;7.37;;;7.30;55.80;7.80;97241.00;;;;4906889;28;20584;-87
2022/03/25 06:53:10;;;;;;;10.20;7.77;;;7.40;55.70;7.90;97242.00;;;;4899820;28;20202;-88
2022/03/25 06:55:40;;;;;;;9.03;7.17;;;7.50;56.30;7.90;97242.00;;;;4894128;28;20237;-87
2022/03/25 06:58:09;;;;;;;9.33;7.50;;;7.60;55.70;8.00;97246.00;;;;4894932;28;20277;-87
2022/03/25 07:00:37;;;;;;;9.90;7.40;;;7.70;55.60;8.10;97255.00;;;;4897181;28;20242;-88
2022/03/25 07:03:05;;;;;;;10.07;7.80;;;7.80;55.40;8.20;97249.00;;;;4913648;28;20311;-89
2022/03/25 07:05:36;;;;;;;9.30;7.30;;;7.90;55.30;8.40;97261.00;;;;4913400;28;20213;-88
2022/03/25 07:08:04;;;;;;;10.33;8.13;;;8.00;55.40;8.50;97258.00;;;;4905644;28;20198;-88
2022/03/25 07:10:32;;;;;;;9.20;7.50;;;8.10;55.20;8.60;97261.00;;;;4895302;28;20217;-88
2022/03/25 07:13:01;;;;;;;12.73;8.17;;;8.20;55.20;8.70;97268.00;;;;4905568;28;20575;-93
2022/03/25 07:15:29;;;;;;;10.50;7.87;;;8.30;55.00;8.80;97263.00;;;;4926051;28;20316;-88
2022/03/25 07:17:56;;;;;;;11.20;7.97;;;8.40;54.90;8.90;97263.00;;;;4923147;28;20205;-88
2022/03/25 07:20:26;;;;;;;11.63;8.30;;;8.40;54.90;9.10;97266.00;;;;4908928;28;20225;-88
2022/03/25 07:22:54;;;;;;;10.17;7.97;;;8.70;55.00;9.20;97276.00;;;;4905626;28;20561;-87
2022/03/25 07:25:21;;;;;;;10.57;8.03;;;8.80;54.80;9.30;97276.00;;;;4914006;28;20193;-88
2022/03/25 07:27:50;;;;;;;12.33;8.60;;;8.90;54.70;9.40;97280.00;;;;4913302;28;20674;-87
2022/03/25 07:30:19;;;;;;;11.83;8.77;;;9.00;54.70;9.50;97285.00;;;;4914920;28;20271;-87
2022/03/25 07:32:46;;;;;;;12.20;8.37;;;9.20;54.50;9.70;97285.00;;;;4895605;28;20202;-87
2022/03/25 07:35:14;;;;;;;11.27;8.57;;;9.30;54.40;9.80;97284.00;;;;4895526;28;20236;-87
2022/03/25 07:37:42;;;;;;;13.07;9.37;;;9.40;54.20;10.00;97275.00;;;;4909407;28;20201;-88
2022/03/25 07:40:13;;;;;;;11.90;8.97;;;9.50;54.30;10.20;97286.00;;;;4909179;28;20218;-88
2022/03/25 07:42:43;;;;;;;11.27;8.37;;;9.60;54.50;10.40;97296.00;;;;4907916;28;20196;-87
2022/03/25 07:45:13;;;;;;;13.27;8.90;;;9.90;54.80;10.70;97293.00;;;;4925019;28;20209;-88
2022/03/25 07:47:43;;;;;;;11.53;8.43;;;10.10;54.90;10.90;97290.00;;;;4909022;29;20197;-89
2022/03/25 07:50:12;;;;;;;12.23;8.93;;;10.30;54.90;11.20;97289.00;;;;4915112;28;20308;-89
2022/03/25 07:52:41;;;;;;;11.17;8.63;;;10.50;54.70;11.40;97297.00;;;;4915793;28;20705;-89
2022/03/25 07:55:10;;;;;;;13.10;9.30;;;10.70;54.60;11.70;97306.00;;;;4921557;28;20220;-89
2022/03/25 07:57:37;;;;;;;13.33;9.17;;;11.00;54.60;12.00;97311.00;;;;4927759;28;20490;-89
2022/03/25 08:00:11;;;;;;;12.43;9.37;;;11.20;54.10;12.20;97316.00;;;;4917766;28;20601;-89
2022/03/25 08:02:38;;;;;;;12.77;9.53;;;11.50;53.90;12.50;97320.00;;;;4922406;29;20232;-89
2022/03/25 08:05:10;;;;;;;12.33;9.43;;;11.70;53.60;12.80;97324.00;;;;4926961;28;20194;-89
2022/03/25 08:07:48;;;;;;;10.70;8.80;;;12.00;53.40;13.00;97322.00;;;;4912491;28;20205;-89
2022/03/25 08:10:18;;;;;;;11.33;9.33;;;12.20;53.40;13.30;97331.00;;;;4916619;28;20228;-89
2022/03/25 08:12:45;;;;;;;11.73;8.90;;;12.50;53.00;13.50;97333.00;;;;4914610;29;20582;-89
2022/03/25 08:15:13;;;;;;;11.73;8.97;;;12.80;52.80;13.80;97321.00;;;;4907316;28;20336;-89
2022/03/25 08:17:52;;;;;;;13.47;9.73;;;13.00;52.40;14.10;97330.00;;;;4914184;29;20233;-89
2022/03/25 08:20:27;;;;;;;12.87;9.90;;;13.30;51.50;14.40;97337.00;;;;4914370;28;20675;-89
2022/03/25 08:22:57;;;;;;;11.63;9.00;;;13.50;51.40;14.60;97342.00;;;;4924180;29;20208;-89
2022/03/25 08:28:09;;;;;;;12.33;9.17;;;14.00;51.50;15.20;97344.00;;;;4917173;28;20208;-89
2022/03/25 08:30:36;;;;;;;13.07;9.67;;;14.20;51.10;15.50;97340.00;;;;4925789;28;20253;-89
2022/03/25 08:33:15;;;;;;;13.17;9.40;;;14.50;50.50;15.80;97348.00;;;;4907347;28;20208;-89
2022/03/25 08:35:47;;;;;;;12.50;9.13;;;14.70;50.20;16.20;97350.00;;;;4952893;28;20226;-89
2022/03/25 08:38:14;;;;;;;12.53;9.07;;;15.00;50.10;16.60;97358.00;;;;4918681;28;20210;-89
2022/03/25 08:40:42;;;;;;;12.83;9.10;;;15.30;49.80;17.00;97348.00;;;;4909176;28;20221;-89
2022/03/25 08:43:12;;;;;;;15.27;9.40;;;15.60;49.70;17.40;97343.00;;;;4919033;28;20197;-89
2022/03/25 08:45:40;;;;;;;12.53;9.47;;;15.90;49.60;17.80;97354.00;;;;4917990;28;20797;-89
2022/03/25 08:48:07;;;;;;;11.20;8.47;;;16.20;49.50;18.20;97357.00;;;;4908515;28;20248;-89
2022/03/25 08:50:37;;;;;;;11.63;9.13;;;16.50;49.40;18.60;97363.00;;;;4921083;28;20600;-90
2022/03/25 08:53:06;;;;;;;14.43;9.60;;;16.90;49.00;18.90;97355.00;;;;4921781;28;20668;-89
2022/03/25 08:55:34;;;;;;;13.10;9.93;;;17.30;48.50;19.20;97373.00;;;;4925284;28;20220;-89
2022/03/25 08:58:01;;;;;;;14.83;10.27;;;17.60;47.80;19.50;97369.00;;;;4909625;28;20395;-89
2022/03/25 09:00:28;;;;;;;12.90;9.47;;;18.10;46.80;19.70;97371.00;;;;4908442;28;20599;-89
2022/03/25 09:02:55;;;;;;;13.10;9.93;;;18.50;46.30;20.00;97370.00;;;;4909082;28;20202;-89
2022/03/25 09:05:22;;;;;;;11.40;9.73;;;19.00;45.40;20.20;97374.00;;;;4930029;29;20548;-89
2022/03/25 09:07:49;;;;;;;14.47;10.37;;;19.50;45.20;20.60;97376.00;;;;4918950;28;20201;-89
2022/03/25 09:10:24;;;;;;;13.37;9.67;;;20.00;44.80;20.90;97368.00;;;;4917171;28;20310;-89
2022/03/25 09:12:51;;;;;;;11.73;9.13;;;20.50;43.90;21.20;97373.00;;;;4916505;28;20209;-88
2022/03/25 09:15:19;;;;;;;12.87;9.63;;;21.00;42.50;21.50;97369.00;;;;4932231;28;20208;-89
2022/03/25 09:17:49;;;;;;;12.97;9.53;;;21.50;41.90;21.80;97372.00;;;;4917395;29;20213;-88
2022/03/25 09:20:16;;;;;;;14.63;9.43;;;21.90;41.40;22.20;97388.00;;;;4918083;28;20383;-89
2022/03/25 09:22:44;;;;;;;10.23;8.90;;;22.40;41.50;22.50;97383.00;;;;4909022;28;20198;-89
2022/03/25 09:25:13;;;;;;;11.33;8.97;;;22.80;41.00;22.80;97391.00;;;;4911654;28;20228;-89
2022/03/25 09:27:42;;;;;;;12.57;8.93;;;23.30;40.60;23.00;97391.00;;;;4916325;28;20529;-89
2022/03/25 09:30:11;;;;;;;10.43;9.27;;;23.70;39.60;23.30;97398.00;;;;4914742;28;20229;-89
2022/03/25 09:32:38;;;;;;;11.87;9.60;;;24.00;38.20;23.40;97387.00;;;;4914625;29;20209;-89
2022/03/25 09:35:09;;;;;;;12.53;9.73;;;24.30;37.80;23.60;97394.00;;;;4913164;28;20228;-89
2022/03/25 09:37:38;;;;;;;13.20;9.23;;;24.60;37.20;23.80;97396.00;;;;4915246;29;20551;-89
2022/03/25 09:40:09;;;;;;;10.80;8.47;;;24.70;37.20;24.00;97395.00;;;;4918440;28;20220;-88
2022/03/25 09:42:37;;;;;;;11.70;7.77;;;25.00;36.30;24.10;97390.00;;;;4980954;28;20612;-89
2022/03/25 09:45:08;;;;;;;10.90;9.10;;;25.10;35.90;24.30;97397.00;;;;4949264;28;20199;-89
2022/03/25 09:47:35;;;;;;;9.67;8.67;;;25.20;35.50;24.40;97396.00;;;;4944900;28;20566;-89
2022/03/25 09:50:05;;;;;;;9.80;8.20;;;25.30;34.60;24.40;97399.00;;;;4927477;28;20208;-89
2022/03/25 09:52:35;;;;;;;11.77;9.07;;;25.30;34.30;24.50;97398.00;;;;4953612;28;20284;-87
2022/03/25 09:55:03;;;;;;;10.30;8.40;;;25.30;34.20;24.60;97401.00;;;;4976439;28;20216;-86
2022/03/25 09:57:32;;;;;;;10.00;9.00;;;25.20;33.90;24.60;97401.00;;;;4936239;28;20582;-89
2022/03/25 10:00:00;;;;;;;12.50;9.33;;;25.20;33.70;24.70;97391.00;;;;4934262;28;20649;-88
2022/03/25 10:02:29;;;;;;;12.20;9.53;;;25.10;34.10;24.70;97395.00;;;;4932841;28;20208;-89
2022/03/25 10:04:56;;;;;;;12.27;9.70;;;25.10;33.60;24.60;97399.00;;;;4932797;28;20299;-88
2022/03/25 10:07:26;;;;;;;11.80;10.27;;;25.10;33.70;24.50;97396.00;;;;4933725;28;20208;-88
2022/03/25 10:10:09;;;;;;;11.67;9.63;;;25.00;33.20;24.50;97394.00;;;;4899083;28;20198;-88
2022/03/25 10:12:37;;;;;;;12.33;9.40;;;24.90;33.10;24.50;97392.00;;;;4919103;28;20200;-88
2022/03/25 10:15:14;;;;;;;12.77;10.07;;;24.90;33.90;24.40;97393.00;;;;4913868;28;20202;-88
2022/03/25 10:17:53;;;;;;;11.27;8.83;;;24.90;33.60;24.40;97388.00;;;;4936781;28;20216;-88
2022/03/25 10:20:24;;;;;;;15.53;10.17;;;24.90;33.70;24.40;97392.00;;;;5002913;28;20295;-89
2022/03/25 10:23:10;;;;;;;15.43;9.67;;;25.00;34.00;24.30;97384.00;;;;5012775;28;20225;-88
2022/03/25 10:25:47;;;;;;;12.73;9.43;;;25.00;33.10;24.30;97391.00;;;;4924227;28;20243;-89
2022/03/25 10:28:26;;;;;;;10.93;9.30;;;25.10;33.40;24.30;97382.00;;;;4913842;28;20224;-89
2022/03/25 10:30:57;;;;;;;13.17;9.77;;;25.10;32.70;24.20;97387.00;;;;4913755;28;20633;-89
2022/03/25 10:33:31;;;;;;;11.00;9.30;;;25.10;32.80;24.10;97376.00;;;;4913533;28;20201;-88
2022/03/25 10:36:07;;;;;;;12.57;9.20;;;25.20;33.20;24.10;97381.00;;;;4912891;28;20232;-88
2022/03/25 10:38:50;;;;;;;11.77;9.60;;;25.20;32.90;24.10;97386.00;;;;4923946;28;20201;-88
2022/03/25 10:41:19;;;;;;;10.93;9.37;;;25.30;33.00;24.20;97384.00;;;;4913528;29;20255;-88
2022/03/25 10:43:57;;;;;;;13.10;9.93;;;25.40;33.40;24.30;97381.00;;;;4921726;28;20207;-88
2022/03/25 10:46:36;;;;;;;12.67;8.87;;;25.50;32.80;24.30;97384.00;;;;4905834;29;20592;-89
2022/03/25 10:49:06;;;;;;;13.53;10.13;;;25.60;33.10;24.40;97375.00;;;;4903432;28;20216;-88
2022/03/25 10:51:35;;;;;;;13.73;10.67;;;25.60;32.60;24.50;97384.00;;;;4894714;28;20233;-88
2022/03/25 10:54:07;;;;;;;13.90;9.90;;;25.60;32.60;24.50;97382.00;;;;4896026;28;20194;-89
2022/03/25 10:56:46;;;;;;;14.40;10.47;;;25.40;31.90;24.40;97374.00;;;;4911678;28;20259;-89
2022/03/25 10:59:25;;;;;;;12.63;9.83;;;25.30;31.90;24.30;97371.00;;;;4911649;28;20208;-88
2022/03/25 11:01:54;;;;;;;11.83;9.60;;;25.10;32.20;24.30;97375.00;;;;4903207;28;20231;-87
2022/03/25 11:04:23;;;;;;;12.80;10.57;;;24.90;32.40;24.20;97373.00;;;;4894398;28;20621;-87
2022/03/25 11:06:51;;;;;;;14.73;10.43;;;24.70;31.90;24.00;97374.00;;;;4896482;28;20205;-87
2022/03/25 11:09:19;;;;;;;14.53;10.57;;;24.50;31.70;23.90;97368.00;;;;4896944;28;20199;-88
2022/03/25 11:11:55;;;;;;;13.43;10.93;;;24.20;32.10;23.70;97358.00;;;;4911559;28;20301;-88